Time;durP1;ratioP1;P1;durP2;ratioP2;P2;SDS_P1;SDS_P2;PMS_P1;PMS_P2;Temp;Humidity;BMP_temperature;BMP_pressure;BME280_temperature;BME280_humidity;BME280_pressure;Samples;Min_cycle;Max_cycle;Signal;HPM_P1;HPM_P2
2022/05/02 00:00:50;;;;;;;;;;;10.90;99.90;;;;;;5155011;27;19946;-75
2022/05/02 00:03:16;;;;;;;;;;;10.90;99.90;;;;;;5136847;27;19953;-75
2022/05/02 00:05:41;;;;;;;;;;;10.90;99.90;;;;;;5154463;27;19908;-75
2022/05/02 00:08:07;;;;;;;;;;;10.90;99.90;;;;;;5155531;27;19914;-75
2022/05/02 00:10:33;;;;;;;;;;;10.90;99.90;;;;;;5154227;27;20368;-75
2022/05/02 00:13:00;;;;;;;;;;;11.00;99.90;;;;;;5136493;27;19919;-75
2022/05/02 00:15:26;;;;;;;;;;;11.00;99.90;;;;;;5154084;27;19915;-75
2022/05/02 00:17:57;;;;;;;;;;;11.00;99.90;;;;;;5154339;27;19907;-75
2022/05/02 00:20:24;;;;;;;;;;;11.10;99.90;;;;;;5154860;27;19915;-75
2022/05/02 00:22:50;;;;;;;;;;;11.10;99.90;;;;;;5154076;27;19907;-75
2022/05/02 00:25:15;;;;;;;;;;;11.10;99.90;;;;;;5154820;27;20272;-75
2022/05/02 00:27:42;;;;;;;;;;;11.10;99.90;;;;;;5154165;27;19907;-75
2022/05/02 00:30:09;;;;;;;;;;;11.10;99.90;;;;;;5154433;27;19918;-75
2022/05/02 00:32:34;;;;;;;;;;;11.10;99.90;;;;;;5154515;27;19938;-75
2022/05/02 00:35:00;;;;;;;;;;;11.10;99.90;;;;;;5154794;27;19950;-75
2022/05/02 00:37:26;;;;;;;;;;;11.20;99.90;;;;;;5154625;27;20002;-75
2022/05/02 00:39:51;;;;;;;;;;;11.20;99.90;;;;;;5154336;27;20415;-75
2022/05/02 00:42:18;;;;;;;;;;;11.20;99.90;;;;;;5154588;27;19999;-75
2022/05/02 00:44:44;;;;;;;;;;;11.20;99.90;;;;;;5135678;27;19907;-74
2022/05/02 00:47:09;;;;;;;;;;;11.10;99.90;;;;;;5154773;27;19915;-75
2022/05/02 00:49:36;;;;;;;;;;;11.00;99.90;;;;;;5154162;27;20033;-75
2022/05/02 00:52:02;;;;;;;;;;;11.00;99.90;;;;;;5154597;27;20412;-75
2022/05/02 00:54:28;;;;;;;;;;;11.00;99.90;;;;;;5154790;27;19907;-75
2022/05/02 00:56:53;;;;;;;;;;;11.00;99.90;;;;;;5153882;27;20386;-75
2022/05/02 00:59:19;;;;;;;;;;;10.90;99.90;;;;;;5154753;27;19911;-75
2022/05/02 01:01:45;;;;;;;;;;;10.90;99.90;;;;;;5153980;27;19913;-76
2022/05/02 01:04:10;;;;;;;;;;;10.90;99.90;;;;;;5154649;27;19907;-75
2022/05/02 01:07:09;;;;;;;;;;;10.90;99.90;;;;;;5135452;27;19914;-75
2022/05/02 01:09:28;;;;;;;;;;;10.90;99.90;;;;;;5150421;27;20265;-75
2022/05/02 01:11:55;;;;;;;;;;;10.90;99.90;;;;;;5153591;27;19915;-75
2022/05/02 01:14:20;;;;;;;;;;;10.90;99.90;;;;;;5154547;27;20326;-75
2022/05/02 01:16:46;;;;;;;;;;;11.00;99.90;;;;;;5153741;27;20001;-75
2022/05/02 01:19:11;;;;;;;;;;;11.00;99.90;;;;;;5154521;27;19929;-75
2022/05/02 01:21:38;;;;;;;;;;;11.00;99.90;;;;;;5153472;27;19948;-75
2022/05/02 01:24:04;;;;;;;;;;;11.00;99.90;;;;;;5154457;27;19968;-75
2022/05/02 01:26:30;;;;;;;;;;;11.10;99.90;;;;;;5138383;27;20375;-75
2022/05/02 01:28:56;;;;;;;;;;;11.00;99.90;;;;;;5157900;27;19915;-75
2022/05/02 01:31:22;;;;;;;;;;;11.10;99.90;;;;;;5158383;27;19911;-74
2022/05/02 01:33:48;;;;;;;;;;;11.10;99.90;;;;;;5159158;27;20340;-75
2022/05/02 01:36:15;;;;;;;;;;;11.10;99.90;;;;;;5158494;27;19907;-75
2022/05/02 01:38:42;;;;;;;;;;;11.10;99.90;;;;;;5157782;27;20378;-75
2022/05/02 01:41:08;;;;;;;;;;;11.10;99.90;;;;;;5158009;27;19975;-75
2022/05/02 01:43:34;;;;;;;;;;;11.20;99.90;;;;;;5157927;27;20344;-75
2022/05/02 01:46:00;;;;;;;;;;;11.20;99.90;;;;;;5158018;27;19911;-75
2022/05/02 01:48:26;;;;;;;;;;;11.20;99.90;;;;;;5158143;27;19918;-76
2022/05/02 01:50:52;;;;;;;;;;;11.30;99.90;;;;;;5156850;27;19957;-75
2022/05/02 01:53:17;;;;;;;;;;;11.30;99.90;;;;;;5158056;27;19962;-76
2022/05/02 01:55:43;;;;;;;;;;;11.20;99.90;;;;;;5157298;27;19908;-75
2022/05/02 01:58:08;;;;;;;;;;;11.30;99.90;;;;;;5158188;27;20415;-75
2022/05/02 02:00:34;;;;;;;;;;;11.30;99.90;;;;;;5157395;27;19908;-75
2022/05/02 02:03:00;;;;;;;;;;;11.20;99.90;;;;;;5157532;27;19907;-75
2022/05/02 02:08:11;;;;;;;;;;;11.20;99.90;;;;;;5157232;27;20529;-75
2022/05/02 02:10:38;;;;;;;;;;;11.20;99.90;;;;;;5157280;27;20359;-75
2022/05/02 02:13:04;;;;;;;;;;;11.20;99.90;;;;;;5157434;27;19918;-75
2022/05/02 02:15:29;;;;;;;;;;;11.20;99.90;;;;;;5157894;27;19934;-75
2022/05/02 02:17:55;;;;;;;;;;;11.10;99.90;;;;;;5157088;27;19955;-75
2022/05/02 02:20:21;;;;;;;;;;;11.10;99.90;;;;;;5157939;27;19951;-75
2022/05/02 02:22:47;;;;;;;;;;;11.10;99.90;;;;;;5156996;27;19907;-75
2022/05/02 02:25:12;;;;;;;;;;;11.10;99.90;;;;;;5138890;27;19914;-75
2022/05/02 02:27:38;;;;;;;;;;;11.10;99.90;;;;;;5157394;27;19994;-75
2022/05/02 02:30:04;;;;;;;;;;;11.00;99.90;;;;;;5156964;27;19922;-75
2022/05/02 02:32:30;;;;;;;;;;;11.10;99.90;;;;;;5157193;27;20435;-75
2022/05/02 02:34:55;;;;;;;;;;;11.10;99.90;;;;;;5156417;27;19907;-75
2022/05/02 02:37:21;;;;;;;;;;;11.10;99.90;;;;;;5156544;27;19955;-75
2022/05/02 02:39:46;;;;;;;;;;;11.10;99.90;;;;;;5155740;27;20359;-75
2022/05/02 02:42:12;;;;;;;;;;;11.10;99.90;;;;;;5156567;27;19915;-76
2022/05/02 02:44:37;;;;;;;;;;;11.10;99.90;;;;;;5156740;27;20378;-75
2022/05/02 02:47:03;;;;;;;;;;;11.10;99.90;;;;;;5156252;27;20358;-75
2022/05/02 02:49:29;;;;;;;;;;;11.10;99.90;;;;;;5156679;27;19918;-75
2022/05/02 02:51:55;;;;;;;;;;;11.10;99.90;;;;;;5155919;27;19911;-75
2022/05/02 02:54:20;;;;;;;;;;;11.10;99.90;;;;;;5156341;27;20374;-75
2022/05/02 02:56:46;;;;;;;;;;;11.10;99.90;;;;;;5156149;27;20278;-74
2022/05/02 02:59:12;;;;;;;;;;;11.10;99.90;;;;;;5156874;27;20336;-75
2022/05/02 03:01:37;;;;;;;;;;;11.10;99.90;;;;;;5156398;27;20306;-75
2022/05/02 03:06:01;;;;;;;;;;;11.00;99.90;;;;;;5156015;27;20317;-75
2022/05/02 03:06:49;;;;;;;;;;;11.00;99.90;;;;;;5155632;27;19911;-75
2022/05/02 03:09:14;;;;;;;;;;;11.10;99.90;;;;;;5156683;27;20317;-75
2022/05/02 03:11:40;;;;;;;;;;;11.10;99.90;;;;;;5156245;27;19911;-75
2022/05/02 03:14:05;;;;;;;;;;;11.10;99.90;;;;;;5155797;27;19918;-75
2022/05/02 03:16:31;;;;;;;;;;;11.20;99.90;;;;;;5156505;27;20344;-75
2022/05/02 03:18:57;;;;;;;;;;;11.10;99.90;;;;;;5155581;27;19930;-75
2022/05/02 03:21:22;;;;;;;;;;;11.20;99.90;;;;;;5156158;27;19908;-75
2022/05/02 03:23:48;;;;;;;;;;;11.10;99.90;;;;;;5155860;27;20015;-75
2022/05/02 03:26:14;;;;;;;;;;;11.20;99.90;;;;;;5155859;27;20348;-75
2022/05/02 03:28:39;;;;;;;;;;;11.20;99.90;;;;;;5156266;27;19930;-75
2022/05/02 03:31:05;;;;;;;;;;;11.20;99.90;;;;;;5155808;27;20264;-75
2022/05/02 03:33:31;;;;;;;;;;;11.20;99.90;;;;;;5155817;27;19911;-75
2022/05/02 03:35:56;;;;;;;;;;;11.20;99.90;;;;;;5155795;27;19985;-75
2022/05/02 03:38:22;;;;;;;;;;;11.20;99.90;;;;;;5155747;27;19914;-75
2022/05/02 03:40:47;;;;;;;;;;;11.20;99.90;;;;;;5155317;27;19914;-75
2022/05/02 03:43:13;;;;;;;;;;;11.10;99.90;;;;;;5155816;27;20348;-75
2022/05/02 03:45:38;;;;;;;;;;;11.10;99.90;;;;;;5155721;27;19911;-75
2022/05/02 03:48:04;;;;;;;;;;;11.10;99.90;;;;;;5155654;27;19907;-75
2022/05/02 03:50:30;;;;;;;;;;;11.10;99.90;;;;;;5154112;27;20385;-75
2022/05/02 03:52:55;;;;;;;;;;;11.10;99.90;;;;;;5136316;27;19911;-75
2022/05/02 03:55:21;;;;;;;;;;;11.10;99.90;;;;;;5155736;27;19907;-75
2022/05/02 03:57:46;;;;;;;;;;;11.10;99.90;;;;;;5154711;27;19919;-75
2022/05/02 04:00:13;;;;;;;;;;;11.10;99.90;;;;;;5155520;27;19923;-75
2022/05/02 04:02:39;;;;;;;;;;;11.10;99.90;;;;;;5155298;27;20010;-75
2022/05/02 04:05:05;;;;;;;;;;;11.00;99.90;;;;;;5154827;27;19948;-75
2022/05/02 04:07:30;;;;;;;;;;;11.00;99.90;;;;;;5155437;27;20001;-75
2022/05/02 04:09:56;;;;;;;;;;;11.00;99.90;;;;;;5154835;27;19907;-75
2022/05/02 04:12:21;;;;;;;;;;;11.00;99.90;;;;;;5155029;27;19911;-75
2022/05/02 04:14:47;;;;;;;;;;;11.00;99.90;;;;;;5136090;27;19938;-75
2022/05/02 04:17:13;;;;;;;;;;;11.00;99.90;;;;;;5155068;27;20276;-75
2022/05/02 04:19:38;;;;;;;;;;;11.00;99.90;;;;;;5155240;27;19952;-75
2022/05/02 04:22:04;;;;;;;;;;;10.90;99.90;;;;;;5154690;27;19907;-75
2022/05/02 04:24:30;;;;;;;;;;;10.90;99.90;;;;;;5155149;27;19998;-75
2022/05/02 04:26:57;;;;;;;;;;;10.90;99.90;;;;;;5154304;27;19915;-75
2022/05/02 04:29:22;;;;;;;;;;;10.90;99.90;;;;;;5155113;27;19914;-75
2022/05/02 04:31:48;;;;;;;;;;;10.90;99.90;;;;;;5154458;27;19911;-75
2022/05/02 04:34:14;;;;;;;;;;;10.90;99.90;;;;;;5154868;27;19918;-75
2022/05/02 04:36:39;;;;;;;;;;;10.90;99.90;;;;;;5154921;27;19951;-75
2022/05/02 04:39:05;;;;;;;;;;;10.90;99.90;;;;;;5154153;27;19907;-75
2022/05/02 04:41:31;;;;;;;;;;;10.90;99.90;;;;;;5154776;27;19908;-75
2022/05/02 04:43:57;;;;;;;;;;;10.90;99.90;;;;;;5153967;27;19958;-75
2022/05/02 04:46:22;;;;;;;;;;;10.90;99.90;;;;;;5154641;27;19932;-75
2022/05/02 04:48:48;;;;;;;;;;;10.90;99.90;;;;;;5154385;27;20355;-75
2022/05/02 04:51:13;;;;;;;;;;;10.90;99.90;;;;;;5154465;27;20005;-75
2022/05/02 04:53:39;;;;;;;;;;;10.90;99.90;;;;;;5154708;27;19918;-75
2022/05/02 04:56:04;;;;;;;;;;;11.00;99.90;;;;;;5153856;27;19923;-74
2022/05/02 04:58:30;;;;;;;;;;;11.00;99.90;;;;;;5136342;27;19907;-75
2022/05/02 05:00:56;;;;;;;;;;;11.00;99.90;;;;;;5153474;27;19931;-74
2022/05/02 05:03:21;;;;;;;;;;;11.00;99.90;;;;;;5154609;27;19947;-75
2022/05/02 05:05:47;;;;;;;;;;;11.00;99.90;;;;;;5154504;27;20322;-75
2022/05/02 05:08:13;;;;;;;;;;;11.10;99.90;;;;;;5153915;27;19914;-75
2022/05/02 05:10:46;;;;;;;;;;;11.10;99.90;;;;;;5135656;27;20394;-75
2022/05/02 05:13:13;;;;;;;;;;;11.10;99.90;;;;;;5153423;27;19918;-75
2022/05/02 05:18:49;;;;;;;;;;;11.10;99.90;;;;;;5153998;27;19960;-75
2022/05/02 05:21:18;;;;;;;;;;;11.10;99.90;;;;;;5153858;27;19911;-75
2022/05/02 05:24:08;;;;;;;;;;;11.10;99.90;;;;;;5153681;27;19989;-75
2022/05/02 05:26:53;;;;;;;;;;;11.10;99.90;;;;;;5154290;27;19907;-75
2022/05/02 05:29:18;;;;;;;;;;;11.10;99.90;;;;;;5154124;27;19979;-75
2022/05/02 05:31:50;;;;;;;;;;;11.10;99.90;;;;;;5153856;27;19915;-75
2022/05/02 05:34:25;;;;;;;;;;;11.00;99.90;;;;;;5153593;27;19911;-75
2022/05/02 05:36:59;;;;;;;;;;;11.10;99.90;;;;;;5153863;27;19929;-74
2022/05/02 05:39:45;;;;;;;;;;;11.10;99.90;;;;;;5154667;27;19907;-75
2022/05/02 05:42:26;;;;;;;;;;;11.20;99.90;;;;;;5153432;27;20091;-75
2022/05/02 05:45:03;;;;;;;;;;;11.20;99.90;;;;;;5153920;27;19972;-75
2022/05/02 05:47:31;;;;;;;;;;;11.20;99.90;;;;;;5154199;27;19919;-75
2022/05/02 05:50:00;;;;;;;;;;;11.20;99.90;;;;;;5153558;27;19907;-75
2022/05/02 05:52:29;;;;;;;;;;;11.10;99.90;;;;;;5154065;27;20009;-75
2022/05/02 05:55:02;;;;;;;;;;;11.00;99.90;;;;;;5153556;27;19907;-75
2022/05/02 05:57:32;;;;;;;;;;;11.00;99.90;;;;;;5135521;27;20260;-75
2022/05/02 06:00:06;;;;;;;;;;;11.10;99.90;;;;;;5134587;27;20372;-75
2022/05/02 06:02:37;;;;;;;;;;;11.10;99.90;;;;;;5153977;27;19907;-74
2022/05/02 06:05:03;;;;;;;;;;;11.10;99.90;;;;;;5153196;27;19968;-75
2022/05/02 06:07:29;;;;;;;;;;;11.10;99.90;;;;;;5154041;27;19915;-75
2022/05/02 06:09:56;;;;;;;;;;;11.10;99.90;;;;;;5153405;27;20270;-75
2022/05/02 06:12:23;;;;;;;;;;;11.20;99.90;;;;;;5154030;27;20356;-75
2022/05/02 06:20:20;;;;;;;;;;;11.20;99.90;;;;;;5157743;27;19979;-75
2022/05/02 06:22:46;;;;;;;;;;;11.20;99.90;;;;;;5157241;27;19929;-75
2022/05/02 06:25:13;;;;;;;;;;;11.10;99.90;;;;;;5156900;27;19907;-75
2022/05/02 06:27:40;;;;;;;;;;;11.10;99.90;;;;;;5157085;27;19911;-75
2022/05/02 06:30:06;;;;;;;;;;;11.20;99.90;;;;;;5156595;27;19958;-75
2022/05/02 06:32:34;;;;;;;;;;;11.10;99.90;;;;;;5138836;27;19954;-76
2022/05/02 06:35:00;;;;;;;;;;;11.20;99.90;;;;;;5129251;27;20012;-76
2022/05/02 06:37:31;;;;;;;;;;;11.10;99.90;;;;;;5147706;27;19911;-76
2022/05/02 06:40:01;;;;;;;;;;;11.20;99.90;;;;;;5139784;27;20387;-76
2022/05/02 06:42:35;;;;;;;;;;;11.20;99.90;;;;;;5136460;27;19914;-76
2022/05/02 06:45:10;;;;;;;;;;;11.30;99.90;;;;;;5135969;27;19914;-76
2022/05/02 06:47:38;;;;;;;;;;;11.40;99.90;;;;;;5136312;27;19914;-76
2022/05/02 06:50:05;;;;;;;;;;;11.30;99.90;;;;;;5135683;27;19977;-75
2022/05/02 06:52:45;;;;;;;;;;;11.30;99.90;;;;;;5136400;27;19943;-75
2022/05/02 06:55:21;;;;;;;;;;;11.30;99.90;;;;;;5135665;27;19929;-75
2022/05/02 06:58:05;;;;;;;;;;;11.40;99.90;;;;;;5136418;27;19972;-75
2022/05/02 07:00:34;;;;;;;;;;;11.50;99.90;;;;;;5136214;27;19953;-75
2022/05/02 07:03:16;;;;;;;;;;;11.60;99.90;;;;;;5116977;27;20344;-75
2022/05/02 07:06:01;;;;;;;;;;;11.70;99.90;;;;;;5135578;27;19907;-75
2022/05/02 07:08:27;;;;;;;;;;;11.70;99.90;;;;;;5135450;27;19907;-75
2022/05/02 07:11:03;;;;;;;;;;;11.80;99.90;;;;;;5136078;27;19918;-75
2022/05/02 07:13:47;;;;;;;;;;;11.80;99.90;;;;;;5135745;27;20113;-75
2022/05/02 07:16:25;;;;;;;;;;;11.80;99.90;;;;;;5135202;27;19911;-75
2022/05/02 07:18:59;;;;;;;;;;;11.90;99.90;;;;;;5135717;27;20437;-75
2022/05/02 07:21:43;;;;;;;;;;;11.90;99.90;;;;;;5135709;27;19956;-75
2022/05/02 07:24:12;;;;;;;;;;;11.90;99.90;;;;;;5134756;27;19911;-75
2022/05/02 07:26:38;;;;;;;;;;;12.00;99.90;;;;;;5135846;27;19907;-76
2022/05/02 07:29:04;;;;;;;;;;;11.90;99.90;;;;;;5134440;27;19907;-75
2022/05/02 07:31:30;;;;;;;;;;;11.80;99.90;;;;;;5135339;27;19963;-75
2022/05/02 07:33:56;;;;;;;;;;;11.80;99.90;;;;;;5135337;27;19911;-75
2022/05/02 07:36:23;;;;;;;;;;;11.80;99.90;;;;;;5134189;27;19915;-76
2022/05/02 07:38:52;;;;;;;;;;;12.00;99.90;;;;;;5135127;27;20337;-75
2022/05/02 07:41:22;;;;;;;;;;;11.90;99.90;;;;;;5134521;27;19911;-75
2022/05/02 07:43:49;;;;;;;;;;;12.00;99.90;;;;;;5135352;27;19907;-75
2022/05/02 07:46:23;;;;;;;;;;;12.10;99.90;;;;;;5134513;27;19914;-75
2022/05/02 07:48:51;;;;;;;;;;;12.10;99.90;;;;;;5134774;27;20284;-76
2022/05/02 07:51:18;;;;;;;;;;;12.20;99.90;;;;;;5133628;27;19912;-75
2022/05/02 07:53:44;;;;;;;;;;;12.10;99.90;;;;;;5134558;27;19912;-75
2022/05/02 07:56:10;;;;;;;;;;;12.10;99.90;;;;;;5133938;27;19919;-75
2022/05/02 07:58:41;;;;;;;;;;;12.10;99.90;;;;;;5144869;27;20048;-75
2022/05/02 08:01:06;;;;;;;;;;;12.20;99.90;;;;;;5144405;27;20249;-75
2022/05/02 08:03:32;;;;;;;;;;;12.20;99.90;;;;;;5136610;27;19914;-76
2022/05/02 08:06:16;;;;;;;;;;;12.30;99.90;;;;;;5154945;27;19968;-75
2022/05/02 08:08:48;;;;;;;;;;;12.40;99.90;;;;;;5155093;27;19946;-75
2022/05/02 08:11:18;;;;;;;;;;;12.60;99.90;;;;;;5154491;27;19917;-75
2022/05/02 08:13:50;;;;;;;;;;;12.60;99.90;;;;;;5155235;27;19917;-75
2022/05/02 08:16:23;;;;;;;;;;;12.70;99.90;;;;;;5154345;27;20244;-75
2022/05/02 08:18:51;;;;;;;;;;;12.70;99.90;;;;;;5139445;27;20096;-75
2022/05/02 08:21:18;;;;;;;;;;;12.60;99.90;;;;;;5133703;27;19952;-75
2022/05/02 08:27:15;;;;;;;;;;;12.50;99.90;;;;;;5134201;27;20041;-75
2022/05/02 08:29:50;;;;;;;;;;;12.40;99.90;;;;;;5096912;27;19998;-75
2022/05/02 08:32:22;;;;;;;;;;;12.60;99.90;;;;;;5115295;27;19937;-75
2022/05/02 08:34:54;;;;;;;;;;;12.60;99.90;;;;;;5133740;27;19912;-75
2022/05/02 08:37:55;;;;;;;;;;;12.70;99.90;;;;;;5133141;27;19923;-75
2022/05/02 08:40:24;;;;;;;;;;;12.80;99.90;;;;;;5027495;28;20000;-75
2022/05/02 08:42:53;;;;;;;;;;;12.80;99.90;;;;;;5114301;27;19911;-75
2022/05/02 08:45:39;;;;;;;;;;;12.80;99.90;;;;;;5133512;27;20001;-76
2022/05/02 08:48:08;;;;;;;;;;;12.90;99.90;;;;;;5080839;27;19907;-76
2022/05/02 08:50:57;;;;;;;;;;;13.00;99.90;;;;;;5134200;27;19911;-76
2022/05/02 08:53:40;;;;;;;;;;;13.10;99.90;;;;;;5133214;27;20385;-75
2022/05/02 08:56:08;;;;;;;;;;;13.10;99.90;;;;;;5133745;27;20306;-75
2022/05/02 08:58:43;;;;;;;;;;;13.20;99.90;;;;;;5133730;27;20264;-75
2022/05/02 09:01:37;;;;;;;;;;;13.30;99.90;;;;;;5133220;27;20006;-75
2022/05/02 09:04:17;;;;;;;;;;;13.40;99.90;;;;;;5111417;27;19907;-75
2022/05/02 09:07:01;;;;;;;;;;;13.50;99.90;;;;;;5133862;27;19908;-76
2022/05/02 09:09:27;;;;;;;;;;;13.60;99.90;;;;;;5133009;28;20355;-75
2022/05/02 09:12:07;;;;;;;;;;;13.70;99.90;;;;;;5133457;28;19911;-75
2022/05/02 09:14:51;;;;;;;;;;;13.80;99.90;;;;;;5133315;28;19918;-75
2022/05/02 09:17:26;;;;;;;;;;;13.80;99.90;;;;;;5133078;28;19914;-76
2022/05/02 09:20:10;;;;;;;;;;;13.80;99.90;;;;;;5133688;28;19907;-75
2022/05/02 09:22:42;;;;;;;;;;;13.80;99.90;;;;;;5142233;27;19911;-75
2022/05/02 09:25:08;;;;;;;;;;;13.90;99.90;;;;;;5142441;27;20307;-75
2022/05/02 09:27:35;;;;;;;;;;;13.70;99.90;;;;;;5135177;27;19930;-76
2022/05/02 09:30:20;;;;;;;;;;;13.70;99.90;;;;;;5142000;27;19908;-76
2022/05/02 09:33:02;;;;;;;;;;;13.70;99.90;;;;;;5141443;27;20376;-76
2022/05/02 09:35:28;;;;;;;;;;;13.70;99.90;;;;;;5132803;28;20474;-75
2022/05/02 09:37:53;;;;;;;;;;;13.70;99.90;;;;;;5133445;28;19907;-76
2022/05/02 09:40:23;;;;;;;;;;;13.70;99.90;;;;;;5132914;28;19914;-76
2022/05/02 09:43:07;;;;;;;;;;;13.70;99.90;;;;;;5133463;28;19911;-76
2022/05/02 09:51:23;;;;;;;;;;;13.80;99.90;;;;;;5145414;27;19934;-76
2022/05/02 09:53:54;;;;;;;;;;;13.70;99.90;;;;;;5146431;27;20295;-76
2022/05/02 09:56:38;;;;;;;;;;;13.70;99.90;;;;;;5148085;27;19954;-76
2022/05/02 09:59:07;;;;;;;;;;;13.60;99.90;;;;;;5146216;27;20348;-76
2022/05/02 10:01:33;;;;;;;;;;;13.70;99.90;;;;;;5146405;27;19951;-76
2022/05/02 10:03:59;;;;;;;;;;;13.60;99.90;;;;;;5148091;27;19922;-76
2022/05/02 10:06:40;;;;;;;;;;;13.60;99.90;;;;;;5125814;27;19908;-76
2022/05/02 10:09:24;;;;;;;;;;;13.50;99.90;;;;;;5147452;27;20288;-76
2022/05/02 10:12:02;;;;;;;;;;;13.50;99.90;;;;;;5139820;27;19911;-76
2022/05/02 10:14:31;;;;;;;;;;;13.50;99.90;;;;;;5126452;27;19911;-76
2022/05/02 10:17:16;;;;;;;;;;;13.40;99.90;;;;;;5142647;27;19933;-76
2022/05/02 10:20:00;;;;;;;;;;;13.50;99.90;;;;;;5137022;27;19912;-76
2022/05/02 10:22:44;;;;;;;;;;;13.40;99.90;;;;;;5135695;27;19912;-76
2022/05/02 10:25:18;;;;;;;;;;;13.50;99.90;;;;;;5136580;27;19911;-76
2022/05/02 10:28:02;;;;;;;;;;;13.60;99.90;;;;;;5136011;27;19907;-76
2022/05/02 10:30:29;;;;;;;;;;;13.70;99.90;;;;;;5135808;27;19915;-76
2022/05/02 10:32:56;;;;;;;;;;;13.80;99.90;;;;;;5136273;27;19918;-76
2022/05/02 10:35:26;;;;;;;;;;;13.80;99.90;;;;;;5135281;27;19908;-76
2022/05/02 10:38:01;;;;;;;;;;;13.90;99.90;;;;;;5136179;27;19990;-76
2022/05/02 10:40:47;;;;;;;;;;;14.00;99.90;;;;;;5117120;27;20002;-76
2022/05/02 10:43:25;;;;;;;;;;;14.10;99.90;;;;;;5134878;27;20002;-76
2022/05/02 10:45:51;;;;;;;;;;;14.00;99.90;;;;;;5135789;27;19950;-76
2022/05/02 10:48:17;;;;;;;;;;;14.20;99.90;;;;;;5135660;27;19914;-76
2022/05/02 10:51:03;;;;;;;;;;;14.20;99.90;;;;;;5135843;27;20270;-76
2022/05/02 10:53:47;;;;;;;;;;;14.10;99.90;;;;;;5083051;27;19965;-77
2022/05/02 10:56:16;;;;;;;;;;;14.20;99.90;;;;;;5117206;27;19964;-77
2022/05/02 10:58:43;;;;;;;;;;;13.90;99.90;;;;;;5135586;27;19908;-77
2022/05/02 11:01:09;;;;;;;;;;;13.90;99.90;;;;;;5135722;27;20265;-77
2022/05/02 11:03:42;;;;;;;;;;;13.90;99.90;;;;;;5135422;27;19956;-77
2022/05/02 11:06:23;;;;;;;;;;;13.90;99.90;;;;;;5135926;27;20005;-78
2022/05/02 11:09:00;;;;;;;;;;;14.00;99.90;;;;;;5135907;27;19947;-78
2022/05/02 11:11:27;;;;;;;;;;;13.90;99.90;;;;;;5135221;27;19915;-78
2022/05/02 11:13:56;;;;;;;;;;;13.90;99.90;;;;;;5135328;27;19912;-78
2022/05/02 11:16:21;;;;;;;;;;;13.90;99.90;;;;;;5134716;27;20422;-78
2022/05/02 11:21:55;;;;;;;;;;;14.10;99.90;;;;;;5135169;27;19910;-78
2022/05/02 11:24:24;;;;;;;;;;;14.20;99.90;;;;;;5134422;27;20287;-78
2022/05/02 11:27:15;;;;;;;;;;;14.10;99.90;;;;;;5135530;27;20018;-78
2022/05/02 11:29:56;;;;;;;;;;;14.20;99.90;;;;;;5095319;27;19961;-78
2022/05/02 11:32:34;;;;;;;;;;;14.20;99.90;;;;;;5134514;27;19912;-78
2022/05/02 11:35:08;;;;;;;;;;;14.20;99.90;;;;;;5135220;27;19918;-78
2022/05/02 11:37:37;;;;;;;;;;;14.30;99.90;;;;;;5134456;27;20280;-78
2022/05/02 11:40:09;;;;;;;;;;;14.40;99.90;;;;;;5135223;27;19908;-78
2022/05/02 11:42:40;;;;;;;;;;;14.40;99.90;;;;;;5134313;27;19908;-78
2022/05/02 11:45:10;;;;;;;;;;;14.40;99.90;;;;;;5135001;27;19953;-77
2022/05/02 11:47:51;;;;;;;;;;;14.50;99.90;;;;;;5134176;27;20345;-78
2022/05/02 11:50:20;;;;;;;;;;;14.40;99.90;;;;;;5134772;27;19961;-78
2022/05/02 11:52:51;;;;;;;;;;;14.50;99.90;;;;;;5135018;27;19911;-78
2022/05/02 11:55:18;;;;;;;;;;;14.40;99.90;;;;;;5135222;27;19914;-78
2022/05/02 11:57:52;;;;;;;;;;;14.50;99.90;;;;;;5134794;27;19919;-79
2022/05/02 12:00:18;;;;;;;;;;;14.50;99.90;;;;;;5116116;27;19907;-78
2022/05/02 12:02:56;;;;;;;;;;;14.60;99.90;;;;;;5134065;27;19908;-79
2022/05/02 12:05:24;;;;;;;;;;;14.60;99.90;;;;;;5134271;27;19998;-77
2022/05/02 12:07:52;;;;;;;;;;;14.80;99.90;;;;;;5134662;27;19912;-78
2022/05/02 12:10:18;;;;;;;;;;;14.90;99.90;;;;;;5133597;27;19960;-78
2022/05/02 12:12:51;;;;;;;;;;;14.90;99.90;;;;;;5134566;27;19912;-78
2022/05/02 12:15:17;;;;;;;;;;;14.90;99.90;;;;;;5134208;27;20309;-78
2022/05/02 12:17:53;;;;;;;;;;;14.90;99.90;;;;;;5133872;27;20034;-78
2022/05/02 12:20:30;;;;;;;;;;;14.90;99.90;;;;;;5134283;27;20283;-78
2022/05/02 12:22:58;;;;;;;;;;;15.00;99.90;;;;;;5134805;27;19907;-77
2022/05/02 12:25:25;;;;;;;;;;;15.10;99.90;;;;;;5133689;27;19907;-77
2022/05/02 12:27:51;;;;;;;;;;;15.20;99.90;;;;;;5134367;27;19993;-78
2022/05/02 12:30:17;;;;;;;;;;;15.20;99.90;;;;;;5134189;27;19907;-78
2022/05/02 12:32:44;;;;;;;;;;;15.30;99.90;;;;;;5133631;27;19968;-78
2022/05/02 12:35:11;;;;;;;;;;;15.50;99.90;;;;;;5134037;27;20048;-78
2022/05/02 12:37:39;;;;;;;;;;;15.40;99.90;;;;;;5133508;27;19973;-77
2022/05/02 12:40:08;;;;;;;;;;;15.50;99.90;;;;;;5115755;27;19908;-78
2022/05/02 12:42:37;;;;;;;;;;;15.50;99.90;;;;;;5133485;27;19916;-77
2022/05/02 12:45:04;;;;;;;;;;;15.60;99.90;;;;;;5134186;27;19907;-78
2022/05/02 12:47:40;;;;;;;;;;;15.70;99.90;;;;;;5133298;27;19907;-77
2022/05/02 12:50:07;;;;;;;;;;;15.70;99.90;;;;;;5133906;27;19907;-78
2022/05/02 12:52:34;;;;;;;;;;;15.70;99.90;;;;;;5133251;27;19915;-79
2022/05/02 12:55:00;;;;;;;;;;;16.00;99.90;;;;;;5133477;27;19943;-79
2022/05/02 13:00:44;;;;;;;;;;;15.90;99.90;;;;;;5123344;27;19918;-79
2022/05/02 13:03:10;;;;;;;;;;;16.00;99.90;;;;;;5133237;27;19918;-79
2022/05/02 13:05:38;;;;;;;;;;;16.10;99.90;;;;;;5132891;27;19952;-79
2022/05/02 13:08:11;;;;;;;;;;;16.30;99.90;;;;;;5133394;28;19907;-79
2022/05/02 13:10:39;;;;;;;;;;;16.50;99.90;;;;;;5132491;28;19918;-79
2022/05/02 13:13:04;;;;;;;;;;;16.70;99.90;;;;;;5133290;28;20210;-79
2022/05/02 13:15:33;;;;;;;;;;;16.70;99.90;;;;;;5132594;28;20002;-78
2022/05/02 13:18:06;;;;;;;;;;;16.60;99.90;;;;;;5133628;28;19912;-79
2022/05/02 13:20:32;;;;;;;;;;;16.60;99.90;;;;;;5133009;28;19914;-79
2022/05/02 13:23:03;;;;;;;;;;;16.70;99.90;;;;;;5137434;27;19907;-79
2022/05/02 13:25:46;;;;;;;;;;;16.60;99.90;;;;;;5137293;27;19929;-78
2022/05/02 13:28:15;;;;;;;;;;;16.70;99.90;;;;;;5137613;27;19908;-79
2022/05/02 13:30:42;;;;;;;;;;;16.60;99.90;;;;;;5137140;27;19911;-79
2022/05/02 13:33:10;;;;;;;;;;;16.60;99.90;;;;;;5137657;27;19956;-79
2022/05/02 13:35:36;;;;;;;;;;;16.60;99.90;;;;;;5136824;27;19915;-79
2022/05/02 13:38:14;;;;;;;;;;;16.50;99.90;;;;;;5137567;27;19907;-79
2022/05/02 13:40:39;;;;;;;;;;;16.70;99.90;;;;;;5137006;27;19935;-79
2022/05/02 13:43:11;;;;;;;;;;;16.80;99.90;;;;;;5137468;27;20340;-78
2022/05/02 13:45:54;;;;;;;;;;;16.80;99.90;;;;;;5136975;27;19908;-79
2022/05/02 13:48:19;;;;;;;;;;;16.80;99.90;;;;;;5137367;27;20365;-78
2022/05/02 13:51:05;;;;;;;;;;;16.80;99.90;;;;;;5136733;27;20010;-78
2022/05/02 13:53:33;;;;;;;;;;;16.90;99.90;;;;;;5084211;27;19911;-78
2022/05/02 13:56:18;;;;;;;;;;;17.00;99.90;;;;;;5136935;27;19926;-78
2022/05/02 13:59:10;;;;;;;;;;;17.00;99.90;;;;;;5136505;27;19907;-78
2022/05/02 14:01:57;;;;;;;;;;;17.00;99.90;;;;;;5096997;27;20428;-78
2022/05/02 14:04:46;;;;;;;;;;;17.10;99.90;;;;;;5136999;27;19907;-78
2022/05/02 14:07:13;;;;;;;;;;;17.10;99.90;;;;;;5137154;27;19908;-78
2022/05/02 14:09:47;;;;;;;;;;;16.70;99.90;;;;;;5136143;27;19917;-78
2022/05/02 14:12:22;;;;;;;;;;;16.90;99.90;;;;;;5137127;27;20271;-78
2022/05/02 14:15:04;;;;;;;;;;;17.00;99.90;;;;;;5136424;27;19943;-78
2022/05/02 14:17:40;;;;;;;;;;;16.90;99.90;;;;;;5136584;27;19994;-78
2022/05/02 14:20:13;;;;;;;;;;;16.90;99.90;;;;;;5136866;27;20356;-79
2022/05/02 14:22:40;;;;;;;;;;;16.90;99.90;;;;;;5136230;27;19911;-78
2022/05/02 14:25:06;;;;;;;;;;;16.90;99.90;;;;;;5136985;27;19911;-79
2022/05/02 14:27:32;;;;;;;;;;;16.80;99.90;;;;;;5136191;27;19914;-78
2022/05/02 14:30:04;;;;;;;;;;;16.60;99.90;;;;;;5136765;27;19908;-78
2022/05/02 14:32:40;;;;;;;;;;;16.30;99.90;;;;;;5136127;27;19959;-78
2022/05/02 14:35:06;;;;;;;;;;;16.40;99.90;;;;;;5135938;27;19971;-79
2022/05/02 14:37:33;;;;;;;;;;;16.30;99.90;;;;;;5117680;27;19957;-78
2022/05/02 14:39:59;;;;;;;;;;;16.30;99.90;;;;;;5136529;27;19911;-78
2022/05/02 14:42:26;;;;;;;;;;;16.30;99.90;;;;;;5118048;27;19914;-78
2022/05/02 14:44:52;;;;;;;;;;;16.20;99.90;;;;;;5135841;27;19963;-79
2022/05/02 14:47:18;;;;;;;;;;;16.20;99.90;;;;;;5135469;27;20428;-78
2022/05/02 14:49:44;;;;;;;;;;;16.00;99.90;;;;;;5135477;27;20047;-79
2022/05/02 14:52:18;;;;;;;;;;;15.80;99.90;;;;;;5135622;27;19981;-78
2022/05/02 14:54:50;;;;;;;;;;;15.70;99.90;;;;;;5135110;27;20010;-79
2022/05/02 14:57:16;;;;;;;;;;;15.70;99.90;;;;;;5135318;27;19920;-79
2022/05/02 14:59:44;;;;;;;;;;;15.40;99.90;;;;;;5115859;27;19990;-78